Alba Rousing — OVIL2 — position and weather

sailwx.info

Track history (hours):
 
Tides and Currents Weather Stations Pressure Air Temp Water Temp Dewpoint Dewpoint Depression Visibility Wind Speed Wind Dir Waves Ship Positions

Alba Rousing

Last reported at 2017-Apr-29 19:00 UTC. Time now 2017-Apr-29 19:24 UTC.
Position N 55°10' E 014°20'.

Length 79 m; draft 3.2 m.

Type: Ship. MMSI: 220439000.

Date/timePositionNaut miles runAvg speedWind from/ knotsBaromVisibWave heightAir tempDewpointWater temp
2017-Apr-29 19:00N 55°10' E 014°20'4 7.9
2017-Apr-29 18:30N 55°07' E 014°15'4 7.7
2017-Apr-29 18:00N 55°04' E 014°10'4 7.4
2017-Apr-29 17:30N 55°01' E 014°06'4 7.8
2017-Apr-29 17:00N 54°60' E 013°60'4 8.3
2017-Apr-29 16:30N 54°58' E 013°53'4 8.3
2017-Apr-29 15:59N 54°56' E 013°46'32 8.0
2017-Apr-29 12:01N 54°46' E 012°54'0 7.3
2017-Apr-29 12:00N 54°46' E 012°54'4 7.4
2017-Apr-29 11:30N 54°45' E 012°47'4 7.5
2017-Apr-29 11:00N 54°44' E 012°42'16 7.9
2017-Apr-29 09:02N 54°35' E 012°20'0 7.4
2017-Apr-29 09:01N 54°35' E 012°19'4 7.5
2017-Apr-29 08:30N 54°31' E 012°17'4 7.2
2017-Apr-29 08:00N 54°28' E 012°15'9 6.8
2017-Apr-29 06:38N 54°19' E 012°10'5 7.0
2017-Apr-29 05:58N 54°15' E 012°06'4 7.5
2017-Apr-29 05:29N 54°11' E 012°06'2 1.8
2017-Apr-29 04:17N 54°09' E 012°07'0 0.0
2017-Apr-29 03:57N 54°09' E 012°07'0 0.0
2017-Apr-29 02:41N 54°09' E 012°07'0 0.0
2017-Apr-29 02:11N 54°09' E 012°07'0 0.0
2017-Apr-29 01:59N 54°09' E 012°07'0 0.0
2017-Apr-28 23:41N 54°09' E 012°07'0 0.0
2017-Apr-28 23:23N 54°09' E 012°07'0 0.0
2017-Apr-28 22:59N 54°09' E 012°07'0 0.0
2017-Apr-28 21:29N 54°09' E 012°07'0 0.0
2017-Apr-28 20:59N 54°09' E 012°07'0 0.0
2017-Apr-28 18:41N 54°09' E 012°07'0 0.0
2017-Apr-28 18:29N 54°09' E 012°07'1 0.1
2017-Apr-28 07:08N 54°10' E 012°06'1 6.2
2017-Apr-28 06:57N 54°11' E 012°06'3 3.6
2017-Apr-28 06:00N 54°13' E 012°01'0 0.0
2017-Apr-27 15:01N 54°13' E 012°01'0 0.1
2017-Apr-27 14:56N 54°13' E 012°01'0 0.0
2017-Apr-27 14:26N 54°13' E 012°01'0 0.0
2017-Apr-27 12:31N 54°13' E 012°01'0 0.1
2017-Apr-27 12:27N 54°13' E 012°01'0 0.0
2017-Apr-27 11:57N 54°13' E 012°01'0 0.0
2017-Apr-27 09:01N 54°13' E 012°01'0 0.0
2017-Apr-27 08:57N 54°13' E 012°01'0 0.0
2017-Apr-27 07:15N 54°13' E 012°01'0 0.0
2017-Apr-27 06:57N 54°13' E 012°01'0 0.0
2017-Apr-27 01:45N 54°13' E 012°01'0 0.0
2017-Apr-27 01:27N 54°13' E 012°01'0 0.0
2017-Apr-27 00:01N 54°13' E 012°01'0 0.0
2017-Apr-26 23:58N 54°13' E 012°01'0 0.0
2017-Apr-26 22:31N 54°13' E 012°01'0 0.0
2017-Apr-26 22:28N 54°13' E 012°01'0 0.0
2017-Apr-26 21:31N 54°13' E 012°01'0 0.0
2017-Apr-26 21:28N 54°13' E 012°01'0 0.0
2017-Apr-26 18:31N 54°13' E 012°01'0 0.0
2017-Apr-26 18:28N 54°13' E 012°01'0 0.0
2017-Apr-26 15:46N 54°13' E 012°01'0 0.0
2017-Apr-26 12:36N 54°13' E 012°01'0 0.6
2017-Apr-26 12:27N 54°13' E 012°01'3 5.5
2017-Apr-26 11:57N 54°15' E 011°58'3 6.7
2017-Apr-26 11:30N 54°17' E 011°54'3 6.6
2017-Apr-26 11:00N 54°19' E 011°50'3 6.6
2017-Apr-26 10:30N 54°21' E 011°46'19 7.4
2017-Apr-26 07:55N 54°32' E 011°19'3 7.3
2017-Apr-26 07:30N 54°33' E 011°14'4 7.0
2017-Apr-26 07:00N 54°35' E 011°09'4 7.1
2017-Apr-26 06:30N 54°35' E 011°03'4 7.7
2017-Apr-26 06:00N 54°35' E 010°56'4 7.5
2017-Apr-26 05:30N 54°34' E 010°49'4 7.3
2017-Apr-26 05:00N 54°34' E 010°43'59 6.5
2017-Apr-25 19:54N 54°02' E 009°18'3 8.5
2017-Apr-25 19:30N 53°59' E 009°17'4 8.3
2017-Apr-25 19:00N 53°56' E 009°12'3 6.0
2017-Apr-25 18:31N 53°54' E 009°09'0 0.0
2017-Apr-25 18:00N 53°54' E 009°09'2 3.4
2017-Apr-25 17:30N 53°53' E 009°11'4 7.6
2017-Apr-25 17:00N 53°52' E 009°18'5 9.7
2017-Apr-25 16:30N 53°48' E 009°23'611.3
2017-Apr-25 16:00N 53°43' E 009°28'510.7
2017-Apr-25 15:30N 53°39' E 009°32'510.1
2017-Apr-25 15:01N 53°35' E 009°37'9 8.7
2017-Apr-25 14:00N 53°33' E 009°51'4 7.4
2017-Apr-25 13:30N 53°33' E 009°58'1 2.2
2017-Apr-25 12:58N 53°32' E 009°59'0 0.0
2017-Apr-25 12:28N 53°32' E 009°59'0 0.0
2017-Apr-25 11:58N 53°32' E 009°59'0 0.0
2017-Apr-25 11:28N 53°32' E 009°59'0 0.0
2017-Apr-25 10:58N 53°32' E 009°59'0 0.0
2017-Apr-25 10:28N 53°32' E 009°59'0 0.0
2017-Apr-25 09:58N 53°32' E 009°59'0 0.0
2017-Apr-25 09:28N 53°32' E 009°59'0 0.0
2017-Apr-25 08:58N 53°32' E 009°59'0 0.0
2017-Apr-25 08:28N 53°32' E 009°59'0 0.0
2017-Apr-25 07:58N 53°32' E 009°59'0 0.0
2017-Apr-25 07:28N 53°32' E 009°59'0 0.0
2017-Apr-25 06:58N 53°32' E 009°59'0 0.0
2017-Apr-25 06:28N 53°32' E 009°59'0 0.0
2017-Apr-25 05:58N 53°32' E 009°59'0 0.0
2017-Apr-25 05:28N 53°32' E 009°59'0 0.0
2017-Apr-25 04:58N 53°32' E 009°59'0 0.0
2017-Apr-25 04:28N 53°32' E 009°59'0 0.0
2017-Apr-25 03:58N 53°32' E 009°59'0 0.0
2017-Apr-25 03:28N 53°32' E 009°59'0 0.0
2017-Apr-25 02:58N 53°32' E 009°59'0 0.0
2017-Apr-25 02:28N 53°32' E 009°59'0 0.0
2017-Apr-25 01:55N 53°32' E 009°59'0 0.0
2017-Apr-25 01:28N 53°32' E 009°59'0 0.0
2017-Apr-25 00:58N 53°32' E 009°59'0 0.0
2017-Apr-25 00:28N 53°32' E 009°59'0 0.0
2017-Apr-24 23:58N 53°32' E 009°59'0 0.0
2017-Apr-24 23:28N 53°32' E 009°59'0 0.0
2017-Apr-24 22:58N 53°32' E 009°59'0 0.0
2017-Apr-24 22:28N 53°32' E 009°59'0 0.0
2017-Apr-24 21:58N 53°32' E 009°59'0 0.0
2017-Apr-24 21:28N 53°32' E 009°59'0 0.0
2017-Apr-24 20:58N 53°32' E 009°59'0 0.0
2017-Apr-24 20:28N 53°32' E 009°59'0 0.0
2017-Apr-24 19:58N 53°32' E 009°59'0 0.0
2017-Apr-24 19:28N 53°32' E 009°59'0 0.0
2017-Apr-24 18:58N 53°32' E 009°59'0 0.0
2017-Apr-24 18:28N 53°32' E 009°59'0 0.0
2017-Apr-24 17:58N 53°32' E 009°59'0 0.0
2017-Apr-24 17:28N 53°32' E 009°59'0 0.0
2017-Apr-24 16:58N 53°32' E 009°59'0 0.0
2017-Apr-24 16:28N 53°32' E 009°59'0 0.0
2017-Apr-24 15:58N 53°32' E 009°59'0 0.5
2017-Apr-24 15:30N 53°32' E 009°59'4 7.5
2017-Apr-24 15:00N 53°32' E 009°53'4 8.5
2017-Apr-24 14:31N 53°34' E 009°46'9 8.9
2017-Apr-24 13:30N 53°37' E 009°33'5 9.6
2017-Apr-24 13:00N 53°42' E 009°30'5 9.5
2017-Apr-24 12:30N 53°45' E 009°24'5 9.8
2017-Apr-24 12:01N 53°50' E 009°21'510.3
2017-Apr-24 11:30N 53°53' E 009°14'3 6.4
2017-Apr-24 11:01N 53°54' E 009°09'0 0.0
2017-Apr-24 10:30N 53°54' E 009°09'2 4.0
2017-Apr-24 10:00N 53°55' E 009°11'4 8.4
2017-Apr-24 09:30N 53°58' E 009°16'4 8.4
2017-Apr-24 09:01N 54°02' E 009°18'59 3.7
2017-Apr-23 17:07N 54°35' E 010°41'1 5.9
2017-Apr-23 17:00N 54°35' E 010°43'3 5.9
2017-Apr-23 16:30N 54°35' E 010°48'3 5.7
2017-Apr-23 16:00N 54°35' E 010°53'3 6.1
2017-Apr-23 15:30N 54°35' E 010°58'3 6.3
2017-Apr-23 15:00N 54°36' E 011°03'6 5.8
2017-Apr-23 14:00N 54°35' E 011°13'3 5.4
2017-Apr-23 13:30N 54°34' E 011°18'3 5.6
2017-Apr-23 13:00N 54°33' E 011°22'3 5.4
2017-Apr-23 12:30N 54°33' E 011°27'3 5.7
2017-Apr-23 12:00N 54°32' E 011°32'6 6.2
2017-Apr-23 11:01N 54°30' E 011°42'0 6.2
2017-Apr-23 11:00N 54°30' E 011°42'3 6.2
2017-Apr-23 10:30N 54°30' E 011°47'12 6.2
2017-Apr-23 08:31N 54°32' E 012°08'0 7.3
2017-Apr-23 08:30N 54°32' E 012°08'4 7.4
2017-Apr-23 08:00N 54°35' E 012°12'3 6.9
2017-Apr-23 07:30N 54°37' E 012°16'3 6.6
2017-Apr-23 07:00N 54°39' E 012°21'3 6.9
2017-Apr-23 06:30N 54°41' E 012°26'3 6.9
2017-Apr-23 06:00N 54°43' E 012°31'3 6.8
2017-Apr-23 05:30N 54°45' E 012°36'37 6.4
2017-Apr-22 23:41N 54°46' E 013°40'1 6.5
2017-Apr-22 23:31N 54°45' E 013°42'3 6.5
2017-Apr-22 23:00N 54°44' E 013°47'3 6.4
2017-Apr-22 22:30N 54°43' E 013°53'3 6.4
2017-Apr-22 22:00N 54°43' E 013°58'4 6.5
2017-Apr-22 21:27N 54°42' E 014°04'3 6.7
2017-Apr-22 20:59N 54°41' E 014°09'3 6.6
2017-Apr-22 20:30N 54°40' E 014°14'3 6.5
2017-Apr-22 20:00N 54°39' E 014°20'3 6.4
2017-Apr-22 19:27N 54°38' E 014°26'9 6.5
2017-Apr-22 18:02N 54°39' E 014°42'0 6.6
2017-Apr-22 18:00N 54°39' E 014°42'3 6.5
2017-Apr-22 17:29N 54°39' E 014°48'3 6.1
2017-Apr-22 16:59N 54°40' E 014°53'131 2.9
2017-Apr-20 19:34N 54°53' E 018°38'1 5.5
2017-Apr-20 19:26N 54°53' E 018°40'3 5.5
2017-Apr-20 18:58N 54°52' E 018°44'3 5.3
2017-Apr-20 18:29N 54°51' E 018°48'3 5.5
2017-Apr-20 18:00N 54°49' E 018°51'3 5.8
2017-Apr-20 17:30N 54°47' E 018°55'3 5.5
2017-Apr-20 17:00N 54°45' E 018°57'3 6.0
2017-Apr-20 16:29N 54°42' E 018°58'3 6.4
2017-Apr-20 16:00N 54°39' E 018°56'3 6.7
2017-Apr-20 15:29N 54°36' E 018°54'3 6.3
2017-Apr-20 15:00N 54°33' E 018°50'3 5.7
2017-Apr-20 14:30N 54°32' E 018°46'6 6.0
2017-Apr-20 13:30N 54°32' E 018°36'3 5.9
2017-Apr-20 12:59N 54°33' E 018°31'0 0.0
2017-Apr-20 12:29N 54°33' E 018°31'0 0.0
2017-Apr-20 11:59N 54°33' E 018°31'0 0.0
2017-Apr-20 11:29N 54°33' E 018°31'0 0.0
2017-Apr-20 10:59N 54°33' E 018°31'0 0.0
2017-Apr-20 10:29N 54°33' E 018°31'0 0.0
2017-Apr-20 09:59N 54°33' E 018°31'0 0.0
2017-Apr-20 09:26N 54°33' E 018°31'0 0.0
2017-Apr-20 08:59N 54°33' E 018°31'0 0.0
2017-Apr-20 08:29N 54°33' E 018°31'0 0.0
2017-Apr-20 07:59N 54°33' E 018°31'0 0.0
2017-Apr-20 07:29N 54°33' E 018°31'0 0.0
2017-Apr-20 06:59N 54°33' E 018°31'0 0.0
2017-Apr-20 06:29N 54°33' E 018°31'0 0.0
2017-Apr-20 05:59N 54°33' E 018°31'0 0.0
2017-Apr-20 05:29N 54°33' E 018°31'0 0.0
2017-Apr-20 04:59N 54°33' E 018°31'0 0.0
2017-Apr-20 04:29N 54°33' E 018°31'0 0.0
2017-Apr-20 03:59N 54°33' E 018°31'0 0.0
2017-Apr-20 03:29N 54°33' E 018°31'0 0.0
2017-Apr-20 02:59N 54°33' E 018°31'0 0.0
2017-Apr-20 02:29N 54°33' E 018°31'0 0.0
2017-Apr-20 01:56N 54°33' E 018°31'0 0.0
2017-Apr-20 01:29N 54°33' E 018°31'0 0.0
2017-Apr-20 00:59N 54°33' E 018°31'0 0.0
2017-Apr-20 00:29N 54°33' E 018°31'0 0.0
2017-Apr-19 23:59N 54°33' E 018°31'0 0.0
2017-Apr-19 23:29N 54°33' E 018°31'0 0.0
2017-Apr-19 22:59N 54°33' E 018°31'0 0.0
2017-Apr-19 22:29N 54°33' E 018°31'0 0.0
2017-Apr-19 22:00N 54°33' E 018°31'0 0.0
2017-Apr-19 21:30N 54°33' E 018°31'0 0.0
2017-Apr-19 21:00N 54°33' E 018°31'2 3.6
2017-Apr-19 20:30N 54°32' E 018°34'4 7.3
2017-Apr-19 20:00N 54°32' E 018°40'3 6.1
2017-Apr-19 19:30N 54°32' E 018°45'3 5.6
2017-Apr-19 19:00N 54°34' E 018°49'  
Track history (hours):
 
Tides and Currents Weather Stations Pressure Air Temp Water Temp Dewpoint Dewpoint Depression Visibility Wind Speed Wind Dir Waves Ship Positions

Alba Rousing

Last reported at 2017-Apr-29 19:00 UTC. Time now 2017-Apr-29 19:24 UTC.
Position N 55°10' E 014°20'.

Length 79 m; draft 3.2 m.

Type: Ship. MMSI: 220439000.

Date/timePositionNaut miles runAvg speedWind from/ knotsBaromVisibWave heightAir tempDewpointWater temp
2017-Apr-29 19:00N 55°10' E 014°20'4 7.9
2017-Apr-29 18:30N 55°07' E 014°15'4 7.7
2017-Apr-29 18:00N 55°04' E 014°10'4 7.4
2017-Apr-29 17:30N 55°01' E 014°06'4 7.8
2017-Apr-29 17:00N 54°60' E 013°60'4 8.3
2017-Apr-29 16:30N 54°58' E 013°53'4 8.3
2017-Apr-29 15:59N 54°56' E 013°46'32 8.0
2017-Apr-29 12:01N 54°46' E 012°54'0 7.3
2017-Apr-29 12:00N 54°46' E 012°54'4 7.4
2017-Apr-29 11:30N 54°45' E 012°47'4 7.5
2017-Apr-29 11:00N 54°44' E 012°42'16 7.9
2017-Apr-29 09:02N 54°35' E 012°20'0 7.4
2017-Apr-29 09:01N 54°35' E 012°19'4 7.5
2017-Apr-29 08:30N 54°31' E 012°17'4 7.2
2017-Apr-29 08:00N 54°28' E 012°15'9 6.8
2017-Apr-29 06:38N 54°19' E 012°10'5 7.0
2017-Apr-29 05:58N 54°15' E 012°06'4 7.5
2017-Apr-29 05:29N 54°11' E 012°06'2 1.8
2017-Apr-29 04:17N 54°09' E 012°07'0 0.0
2017-Apr-29 03:57N 54°09' E 012°07'0 0.0
2017-Apr-29 02:41N 54°09' E 012°07'0 0.0
2017-Apr-29 02:11N 54°09' E 012°07'0 0.0
2017-Apr-29 01:59N 54°09' E 012°07'0 0.0
2017-Apr-28 23:41N 54°09' E 012°07'0 0.0
2017-Apr-28 23:23N 54°09' E 012°07'0 0.0
2017-Apr-28 22:59N 54°09' E 012°07'0 0.0
2017-Apr-28 21:29N 54°09' E 012°07'0 0.0
2017-Apr-28 20:59N 54°09' E 012°07'0 0.0
2017-Apr-28 18:41N 54°09' E 012°07'0 0.0
2017-Apr-28 18:29N 54°09' E 012°07'1 0.1
2017-Apr-28 07:08N 54°10' E 012°06'1 6.2
2017-Apr-28 06:57N 54°11' E 012°06'3 3.6
2017-Apr-28 06:00N 54°13' E 012°01'0 0.0
2017-Apr-27 15:01N 54°13' E 012°01'0 0.1
2017-Apr-27 14:56N 54°13' E 012°01'0 0.0
2017-Apr-27 14:26N 54°13' E 012°01'0 0.0
2017-Apr-27 12:31N 54°13' E 012°01'0 0.1
2017-Apr-27 12:27N 54°13' E 012°01'0 0.0
2017-Apr-27 11:57N 54°13' E 012°01'0 0.0
2017-Apr-27 09:01N 54°13' E 012°01'0 0.0
2017-Apr-27 08:57N 54°13' E 012°01'0 0.0
2017-Apr-27 07:15N 54°13' E 012°01'0 0.0
2017-Apr-27 06:57N 54°13' E 012°01'0 0.0
2017-Apr-27 01:45N 54°13' E 012°01'0 0.0
2017-Apr-27 01:27N 54°13' E 012°01'0 0.0
2017-Apr-27 00:01N 54°13' E 012°01'0 0.0
2017-Apr-26 23:58N 54°13' E 012°01'0 0.0
2017-Apr-26 22:31N 54°13' E 012°01'0 0.0
2017-Apr-26 22:28N 54°13' E 012°01'0 0.0
2017-Apr-26 21:31N 54°13' E 012°01'0 0.0
2017-Apr-26 21:28N 54°13' E 012°01'0 0.0
2017-Apr-26 18:31N 54°13' E 012°01'0 0.0
2017-Apr-26 18:28N 54°13' E 012°01'0 0.0
2017-Apr-26 15:46N 54°13' E 012°01'0 0.0
2017-Apr-26 12:36N 54°13' E 012°01'0 0.6
2017-Apr-26 12:27N 54°13' E 012°01'3 5.5
2017-Apr-26 11:57N 54°15' E 011°58'3 6.7
2017-Apr-26 11:30N 54°17' E 011°54'3 6.6
2017-Apr-26 11:00N 54°19' E 011°50'3 6.6
2017-Apr-26 10:30N 54°21' E 011°46'19 7.4
2017-Apr-26 07:55N 54°32' E 011°19'3 7.3
2017-Apr-26 07:30N 54°33' E 011°14'4 7.0
2017-Apr-26 07:00N 54°35' E 011°09'4 7.1
2017-Apr-26 06:30N 54°35' E 011°03'4 7.7
2017-Apr-26 06:00N 54°35' E 010°56'4 7.5
2017-Apr-26 05:30N 54°34' E 010°49'4 7.3
2017-Apr-26 05:00N 54°34' E 010°43'59 6.5
2017-Apr-25 19:54N 54°02' E 009°18'3 8.5
2017-Apr-25 19:30N 53°59' E 009°17'4 8.3
2017-Apr-25 19:00N 53°56' E 009°12'3 6.0
2017-Apr-25 18:31N 53°54' E 009°09'0 0.0
2017-Apr-25 18:00N 53°54' E 009°09'2 3.4
2017-Apr-25 17:30N 53°53' E 009°11'4 7.6
2017-Apr-25 17:00N 53°52' E 009°18'5 9.7
2017-Apr-25 16:30N 53°48' E 009°23'611.3
2017-Apr-25 16:00N 53°43' E 009°28'510.7
2017-Apr-25 15:30N 53°39' E 009°32'510.1
2017-Apr-25 15:01N 53°35' E 009°37'9 8.7
2017-Apr-25 14:00N 53°33' E 009°51'4 7.4
2017-Apr-25 13:30N 53°33' E 009°58'1 2.2
2017-Apr-25 12:58N 53°32' E 009°59'0 0.0
2017-Apr-25 12:28N 53°32' E 009°59'0 0.0
2017-Apr-25 11:58N 53°32' E 009°59'0 0.0
2017-Apr-25 11:28N 53°32' E 009°59'0 0.0
2017-Apr-25 10:58N 53°32' E 009°59'0 0.0
2017-Apr-25 10:28N 53°32' E 009°59'0 0.0
2017-Apr-25 09:58N 53°32' E 009°59'0 0.0
2017-Apr-25 09:28N 53°32' E 009°59'0 0.0
2017-Apr-25 08:58N 53°32' E 009°59'0 0.0
2017-Apr-25 08:28N 53°32' E 009°59'0 0.0
2017-Apr-25 07:58N 53°32' E 009°59'0 0.0
2017-Apr-25 07:28N 53°32' E 009°59'0 0.0
2017-Apr-25 06:58N 53°32' E 009°59'0 0.0
2017-Apr-25 06:28N 53°32' E 009°59'0 0.0
2017-Apr-25 05:58N 53°32' E 009°59'0 0.0
2017-Apr-25 05:28N 53°32' E 009°59'0 0.0
2017-Apr-25 04:58N 53°32' E 009°59'0 0.0
2017-Apr-25 04:28N 53°32' E 009°59'0 0.0
2017-Apr-25 03:58N 53°32' E 009°59'0 0.0
2017-Apr-25 03:28N 53°32' E 009°59'0 0.0
2017-Apr-25 02:58N 53°32' E 009°59'0 0.0
2017-Apr-25 02:28N 53°32' E 009°59'0 0.0
2017-Apr-25 01:55N 53°32' E 009°59'0 0.0
2017-Apr-25 01:28N 53°32' E 009°59'0 0.0
2017-Apr-25 00:58N 53°32' E 009°59'0 0.0
2017-Apr-25 00:28N 53°32' E 009°59'0 0.0
2017-Apr-24 23:58N 53°32' E 009°59'0 0.0
2017-Apr-24 23:28N 53°32' E 009°59'0 0.0
2017-Apr-24 22:58N 53°32' E 009°59'0 0.0
2017-Apr-24 22:28N 53°32' E 009°59'0 0.0
2017-Apr-24 21:58N 53°32' E 009°59'0 0.0
2017-Apr-24 21:28N 53°32' E 009°59'0 0.0
2017-Apr-24 20:58N 53°32' E 009°59'0 0.0
2017-Apr-24 20:28N 53°32' E 009°59'0 0.0
2017-Apr-24 19:58N 53°32' E 009°59'0 0.0
2017-Apr-24 19:28N 53°32' E 009°59'0 0.0
2017-Apr-24 18:58N 53°32' E 009°59'0 0.0
2017-Apr-24 18:28N 53°32' E 009°59'0 0.0
2017-Apr-24 17:58N 53°32' E 009°59'0 0.0
2017-Apr-24 17:28N 53°32' E 009°59'0 0.0
2017-Apr-24 16:58N 53°32' E 009°59'0 0.0
2017-Apr-24 16:28N 53°32' E 009°59'0 0.0
2017-Apr-24 15:58N 53°32' E 009°59'0 0.5
2017-Apr-24 15:30N 53°32' E 009°59'4 7.5
2017-Apr-24 15:00N 53°32' E 009°53'4 8.5
2017-Apr-24 14:31N 53°34' E 009°46'9 8.9
2017-Apr-24 13:30N 53°37' E 009°33'5 9.6
2017-Apr-24 13:00N 53°42' E 009°30'5 9.5
2017-Apr-24 12:30N 53°45' E 009°24'5 9.8
2017-Apr-24 12:01N 53°50' E 009°21'510.3
2017-Apr-24 11:30N 53°53' E 009°14'3 6.4
2017-Apr-24 11:01N 53°54' E 009°09'0 0.0
2017-Apr-24 10:30N 53°54' E 009°09'2 4.0
2017-Apr-24 10:00N 53°55' E 009°11'4 8.4
2017-Apr-24 09:30N 53°58' E 009°16'4 8.4
2017-Apr-24 09:01N 54°02' E 009°18'59 3.7
2017-Apr-23 17:07N 54°35' E 010°41'1 5.9
2017-Apr-23 17:00N 54°35' E 010°43'3 5.9
2017-Apr-23 16:30N 54°35' E 010°48'3 5.7
2017-Apr-23 16:00N 54°35' E 010°53'3 6.1
2017-Apr-23 15:30N 54°35' E 010°58'3 6.3
2017-Apr-23 15:00N 54°36' E 011°03'6 5.8
2017-Apr-23 14:00N 54°35' E 011°13'3 5.4
2017-Apr-23 13:30N 54°34' E 011°18'3 5.6
2017-Apr-23 13:00N 54°33' E 011°22'3 5.4
2017-Apr-23 12:30N 54°33' E 011°27'3 5.7
2017-Apr-23 12:00N 54°32' E 011°32'6 6.2
2017-Apr-23 11:01N 54°30' E 011°42'0 6.2
2017-Apr-23 11:00N 54°30' E 011°42'3 6.2
2017-Apr-23 10:30N 54°30' E 011°47'12 6.2
2017-Apr-23 08:31N 54°32' E 012°08'0 7.3
2017-Apr-23 08:30N 54°32' E 012°08'4 7.4
2017-Apr-23 08:00N 54°35' E 012°12'3 6.9
2017-Apr-23 07:30N 54°37' E 012°16'3 6.6
2017-Apr-23 07:00N 54°39' E 012°21'3 6.9
2017-Apr-23 06:30N 54°41' E 012°26'3 6.9
2017-Apr-23 06:00N 54°43' E 012°31'3 6.8
2017-Apr-23 05:30N 54°45' E 012°36'37 6.4
2017-Apr-22 23:41N 54°46' E 013°40'1 6.5
2017-Apr-22 23:31N 54°45' E 013°42'3 6.5
2017-Apr-22 23:00N 54°44' E 013°47'3 6.4
2017-Apr-22 22:30N 54°43' E 013°53'3 6.4
2017-Apr-22 22:00N 54°43' E 013°58'4 6.5
2017-Apr-22 21:27N 54°42' E 014°04'3 6.7
2017-Apr-22 20:59N 54°41' E 014°09'3 6.6
2017-Apr-22 20:30N 54°40' E 014°14'3 6.5
2017-Apr-22 20:00N 54°39' E 014°20'3 6.4
2017-Apr-22 19:27N 54°38' E 014°26'9 6.5
2017-Apr-22 18:02N 54°39' E 014°42'0 6.6
2017-Apr-22 18:00N 54°39' E 014°42'3 6.5
2017-Apr-22 17:29N 54°39' E 014°48'3 6.1
2017-Apr-22 16:59N 54°40' E 014°53'131 2.9
2017-Apr-20 19:34N 54°53' E 018°38'1 5.5
2017-Apr-20 19:26N 54°53' E 018°40'3 5.5
2017-Apr-20 18:58N 54°52' E 018°44'3 5.3
2017-Apr-20 18:29N 54°51' E 018°48'3 5.5
2017-Apr-20 18:00N 54°49' E 018°51'3 5.8
2017-Apr-20 17:30N 54°47' E 018°55'3 5.5
2017-Apr-20 17:00N 54°45' E 018°57'3 6.0
2017-Apr-20 16:29N 54°42' E 018°58'3 6.4
2017-Apr-20 16:00N 54°39' E 018°56'3 6.7
2017-Apr-20 15:29N 54°36' E 018°54'3 6.3
2017-Apr-20 15:00N 54°33' E 018°50'3 5.7
2017-Apr-20 14:30N 54°32' E 018°46'6 6.0
2017-Apr-20 13:30N 54°32' E 018°36'3 5.9
2017-Apr-20 12:59N 54°33' E 018°31'0 0.0
2017-Apr-20 12:29N 54°33' E 018°31'0 0.0
2017-Apr-20 11:59N 54°33' E 018°31'0 0.0
2017-Apr-20 11:29N 54°33' E 018°31'0 0.0
2017-Apr-20 10:59N 54°33' E 018°31'0 0.0
2017-Apr-20 10:29N 54°33' E 018°31'0 0.0
2017-Apr-20 09:59N 54°33' E 018°31'0 0.0
2017-Apr-20 09:26N 54°33' E 018°31'0 0.0
2017-Apr-20 08:59N 54°33' E 018°31'0 0.0
2017-Apr-20 08:29N 54°33' E 018°31'0 0.0
2017-Apr-20 07:59N 54°33' E 018°31'0 0.0
2017-Apr-20 07:29N 54°33' E 018°31'0 0.0
2017-Apr-20 06:59N 54°33' E 018°31'0 0.0
2017-Apr-20 06:29N 54°33' E 018°31'0 0.0
2017-Apr-20 05:59N 54°33' E 018°31'0 0.0
2017-Apr-20 05:29N 54°33' E 018°31'0 0.0
2017-Apr-20 04:59N 54°33' E 018°31'0 0.0
2017-Apr-20 04:29N 54°33' E 018°31'0 0.0
2017-Apr-20 03:59N 54°33' E 018°31'0 0.0
2017-Apr-20 03:29N 54°33' E 018°31'0 0.0
2017-Apr-20 02:59N 54°33' E 018°31'0 0.0
2017-Apr-20 02:29N 54°33' E 018°31'0 0.0
2017-Apr-20 01:56N 54°33' E 018°31'0 0.0
2017-Apr-20 01:29N 54°33' E 018°31'0 0.0
2017-Apr-20 00:59N 54°33' E 018°31'0 0.0
2017-Apr-20 00:29N 54°33' E 018°31'0 0.0
2017-Apr-19 23:59N 54°33' E 018°31'0 0.0
2017-Apr-19 23:29N 54°33' E 018°31'0 0.0
2017-Apr-19 22:59N 54°33' E 018°31'0 0.0
2017-Apr-19 22:29N 54°33' E 018°31'0 0.0
2017-Apr-19 22:00N 54°33' E 018°31'0 0.0
2017-Apr-19 21:30N 54°33' E 018°31'0 0.0
2017-Apr-19 21:00N 54°33' E 018°31'2 3.6
2017-Apr-19 20:30N 54°32' E 018°34'4 7.3
2017-Apr-19 20:00N 54°32' E 018°40'3 6.1
2017-Apr-19 19:30N 54°32' E 018°45'3 5.6
2017-Apr-19 19:00N 54°34' E 018°49'  

Dump ship's entire track history